ADDS METAR Data INFO
IDs: Format: Raw Decoded Include TAF

Data at: 0023 UTC 11 Dec 2017

PABI 102353Z 18023G35KT 10SM FEW050 FEW100 SCT150 SCT200 05/M04 A2967 RMK AO2 PK WND 19041/2312 SLP067 T00501039 10061 20050 50005 $
PABI 102253Z 18025G34KT 10SM FEW050 FEW100 FEW140 SCT200 05/M04 A2969 RMK AO2 PK WND 18042/2154 SLP072 T00501039 $
PABI 102153Z 18028G41KT 10SM FEW050 FEW100 FEW140 SCT200 05/M04 A2967 RMK AO2 PK WND 18045/2125 SLP069 T00501039 $
PABI 102053Z 18024G43KT 10SM FEW050 FEW100 FEW130 06/M04 A2965 RMK AO2 PK WND 19045/2032 SLP066 T00561044 50009 $
PABI 101953Z 18026G37KT 10SM FEW050 FEW100 06/M04 A2966 RMK AO2 PK WND 18051/1930 SLP069 T00561039 $
PABI 101853Z 19031G43KT 10SM FEW100 06/M03 A2964 RMK AO2 PK WND 18050/1755 SLP064 T00561033 $
PABI 101753Z 19029G47KT 10SM FEW140 06/M03 A2963 RMK AO2 PK WND 18048/1724 SLP058 T00611033 10067 21017 53022 $
PABI 101653Z 18034G48KT 10SM CLR 06/M03 A2961 RMK AO2 PK WND 18049/1631 SLP052 T00561033 $
PABI 101553Z 18029G39KT 10SM CLR 06/M02 A2957 RMK AO2 PK WND 16044/1533 SLP040 T00561022 $
PABI 101453Z AUTO 17028G41KT 10SM CLR 07/M02 A2956 RMK AO2 PK WND 18041/1451 SLP036 T00671022 53020 TSNO $
PABI 101353Z AUTO 16024G35KT 10SM CLR 03/M02 A2955 RMK AO2 PK WND 16035/1347 SLP034 T00281022 TSNO $
PABI 101253Z AUTO 12022G28KT 10SM CLR 00/M02 A2951 RMK AO2 PK WND 14029/1228 SLP023 T00001022 TSNO $
PABI 101153Z AUTO 12011KT 10SM CLR M02/M02 A2950 RMK AO2 PK WND 12026/1102 SLP023 I6003 T10171022 11017 21117 56004 TSNO $
PABI 101053Z AUTO 10013G24KT 10SM FEW110 M02/M03 A2950 RMK AO2 PK WND 11027/1008 SLP023 I1001 T10171028 TSNO $
PABI 100953Z AUTO 10014KT 10SM CLR M04/M04 A2950 RMK AO2 SLP025 I1001 T10391039 TSNO $
PABI 100853Z AUTO 00000KT 10SM CLR M09/M09 A2951 RMK AO2 SLP033 I1000 I3001 T10891094 410611133 56008 TSNO $
PABI 100753Z AUTO 11004KT 10SM FEW085 M09/M09 A2952 RMK AO2 SLP034 I1000 T10891094 TSNO $
PABI 100653Z AUTO 06005KT 10SM CLR M12/M13 A2952 RMK AO2 SLP039 I1001 T11171128 TSNO $
PABI 100553Z 22003KT 10SM BKN200 M11/M11 A2954 RMK AO2 SLP043 I1001 I6006 T11061111 11089 21133 56021 $
PABI 100453Z 19003KT 10SM BKN200 M12/M12 A2955 RMK SLP048 I1001 T11171122 $ VIA AUTODIAL
PABI 100401Z 12005KT 10SM FEW001 BKN200 M10/M11 A2957 RMK AO2 FZFG VC ALQDS I1000 T11001106 $
PABI 100353Z 14003KT 2 1/2SM BR SCT001 BKN200 M12/M12 A2957 RMK AO2 SLP055 FZFG VC ALQDS I1001 T11171122 $
PABI 100332Z 00000KT 1 3/4SM BR OVC001 M12/M13 A2958 RMK AO2 VIS 3/4V5 I1001 T11221133 $
PABI 100322Z 19004KT 2SM BR OVC002 M11/M12 A2959 RMK AO2 VIS 1 1/4V3 I1001 T11111117 $
PABI 100308Z 20003KT 1SM BR VV002 M12/M13 A2960 RMK AO2 VIS 3/4V2 1/2 I1001 T11171128 $
PABI 100253Z 13003KT 1/2SM FZFG VV002 M13/M13 A2960 RMK SLP067 FZFG VC ALQDS I3003 T11281133 56014 $ VIA AUTODIAL
PABI 100251Z 13003KT 1/2SM FZFG VV002 M13/M13 A2960 RMK FZFG VC ALQDS $ VIA AUTODIAL
PABI 100250Z 13003KT 3/4SM BR VV002 M13/M13 A2960 RMK FZFG VC ALQDS $ VIA AUTODIAL
PABI 100231Z 00000KT 1SM BR OVC002 M13/M13 A2961 RMK AO2 T11281133 $
PABI 100201Z 00000KT 1/4SM FZFG VV002 M12/M12 A2962 RMK AO2 T11171122 $
PABI 100153Z 00000KT 1/2SM FZFG VV001 M12/M12 A2963 RMK AO2 SLP074 I1003 T11171122 $
PABI 100149Z 00000KT 1/2SM FZFG VV002 M12/M12 A2963 RMK AO2 FZFG VC ALQDS I1003 $
PABI 100143Z 20003KT 1 1/2SM BR BKN003 M12/M13 A2963 RMK AO2 FG VC ALQDS I1002 T11221128 $
PABI 100118Z 00000KT 3SM BR BKN003 M12/M13 A2964 RMK AO2 I1001 T11221133 $
PABI 100111Z 00000KT 1SM BR VV003 M12/M13 A2964 RMK AO2 I1001 T11221128 $
PABI 100058Z 00000KT 1/2SM FZFG VV003 M12/M13 A2964 RMK AO2 T11221128 $
PABI 100053Z 00000KT 1 1/4SM BR OVC003 M12/M13 A2964 RMK AO2 SLP079 FG VC ALQDS T11221128 $
PABI 100044Z 00000KT 1 3/4SM BR OVC003 M12/M13 A2965 RMK AO2 FG VC ALQDS T11221128 $
PABI 092353Z 19003KT 4SM BR BKN004 BKN130 BKN200 M13/M13 A2966 RMK AO2 SLP085 FG DSNT ALQDS I1001 I6006 T11281133 11111 21133 56019 $
PABI 092350Z 21006KT 4SM BR BKN004 BKN130 BKN200 M13/M13 A2967 RMK AO2 FG DSNT ALQDS I1001 $
PABI 092328Z 21004KT 4SM BR SCT002 BKN130 BKN200 M12/M13 A2968 RMK AO2 FG DSNT ALQDS I1001 T11221128 $
PABI 092253Z 00000KT 4SM BR OVC002 M12/M13 A2969 RMK AO2 SLP095 I1001 T11221133 $
PABI 092242Z 00000KT 5SM BR OVC002 M13/M14 A2970 RMK AO2 I1001 T11281139 $
PABI 092153Z 08003KT 10SM FEW002 FEW150 SCT200 M12/M13 A2972 RMK AO2 SLP104 BCFG DSNT ALQDS I1000 T11221128 $
PABI 092053Z 14005KT 10SM SCT002 SCT200 M13/M14 A2974 RMK AO2 SLP110 I1002 I3004 T11281139 56008 $
PABI 092049Z 13005KT 10SM SCT002 SCT200 M13/M14 A2974 RMK AO2 I1002 $
PABI 092041Z 15003KT 4SM BR BKN002 M12/M13 A2975 RMK AO2 I1002 T11221133 $
PABI 092037Z 14004KT 1SM BR VV002 M13/M13 A2975 RMK AO2 I1002 T11281133 $
PABI 091958Z 11004KT 1/2SM FZFG OVC002 M13/M14 A2976 RMK AO2 I1000 T11281139 $
PABI 091953Z 11005KT 1 3/4SM BR OVC002 M13/M14 A2976 RMK AO2 SLP116 I1001 T11281139 $
PABI 091908Z 00000KT 3SM BR OVC002 M12/M13 A2977 RMK AO2 I1000 T11221128 $
PABI 091850Z 00000KT 1SM BR OVC002 M12/M13 A2977 RMK AO2 SLP119 I1001 T11221128 $
PABI 091849Z 00000KT 1SM BR OVC002 M12/M13 A2977 RMK AO2 I1001 $
PABI 091753Z 00000KT 1/2SM FZFG OVC003 M12/M12 A2978 RMK AO2 SLP121 I1001 I6005 T11171122 11089 21117 51001 $
PABI 091740Z 00000KT 1/2SM FZFG OVC003 M11/M11 A2977 RMK AO2 I1001 T11111111 $
PABI 091729Z 00000KT 1SM BR OVC003 M11/M12 A2978 RMK AO2 I1001 T11111117 $
PABI 091721Z 00000KT 3/4SM BR OVC002 M11/M12 A2978 RMK AO2 I1001 T11111117 $
PABI 091653Z 00000KT 1/2SM FZFG VV002 M11/M12 A2977 RMK AO2 SLP119 I1002 T11111117 $
PABI 091553Z 00000KT 1/4SM FZFG VV002 M11/M11 A2978 RMK AO2 SLP119 I1000 T11061111 $
PABI 091506Z 00000KT 1/2SM FZFG OVC002 M11/M11 A2978 RMK AO2 T11111111 $
PABI 091453Z AUTO 00000KT 3/4SM BR OVC002 M12/M12 A2977 RMK AO2 SLP117 I1000 I3002 T11171117 53009 TSNO $
PABI 091443Z AUTO 00000KT 3/4SM BR OVC002 M11/M12 A2977 RMK AO2 I1000 T11111117 TSNO $
PABI 091426Z AUTO 00000KT 1/4SM FZFG VV002 M11/M11 A2977 RMK AO2 I1000 T11111111 TSNO $
PABI 091418Z AUTO 00000KT 1/4SM FZFG VV001 M11/M11 A2977 RMK AO2 T11111111 TSNO $
PABI 091353Z AUTO 00000KT 1/4SM FZFG VV002 M11/M11 A2976 RMK AO2 SLP112 I1001 T11061111 TSNO $
PABI 091329Z AUTO 00000KT 1/2SM FZFG VV002 M10/M10 A2976 RMK AO2 T11001100 TSNO $
PABI 091319Z AUTO 00000KT 3/4SM BR VV001 M10/M10 A2975 RMK AO2 T11001100 TSNO $
PABI 091308Z AUTO 22004KT 1 1/4SM BR OVC001 M10/M10 A2975 RMK AO2 T11001100 TSNO $
PABI 091300Z AUTO 21004KT 2SM BR OVC001 M10/M10 A2975 RMK AO2 T11001100 TSNO $
PABI 091253Z AUTO 19004KT 10SM OVC002 M11/M12 A2975 RMK AO2 SLP105 I1001 T11061117 TSNO $
PABI 091236Z AUTO 00000KT 7SM M10/M11 A2974 RMK AO2 I1001 T11001106 TSNO $
PABI 091228Z AUTO 00000KT 2SM BR M09/M09 A2974 RMK AO2 VIS 1V5 I1000 T10941094 TSNO $